createdAt,value
2023-10-07T00:03:54.215Z,101587.50
2023-10-07T00:08:01.626Z,101581.19
2023-10-07T00:12:04.983Z,101578.41
2023-10-07T00:16:11.373Z,101582.38
2023-10-07T00:20:14.304Z,101587.84
2023-10-07T00:24:20.711Z,101584.78
2023-10-07T00:28:30.046Z,101591.84
2023-10-07T00:32:34.512Z,101588.88
2023-10-07T00:36:44.014Z,101594.00
2023-10-07T00:40:53.816Z,101597.84
2023-10-07T00:44:58.197Z,101614.00
2023-10-07T00:49:10.918Z,101616.50
2023-10-07T00:53:13.910Z,101606.13
2023-10-07T00:57:25.206Z,101604.97
2023-10-07T01:01:30.044Z,101599.50
2023-10-07T01:05:35.236Z,101591.28
2023-10-07T01:09:38.036Z,101594.56
2023-10-07T01:13:47.257Z,101586.13
2023-10-07T01:17:55.176Z,101586.13
2023-10-07T01:22:10.213Z,101596.56
2023-10-07T01:26:23.686Z,101604.63
2023-10-07T01:30:30.241Z,101593.41
2023-10-07T01:34:36.712Z,101595.31
2023-10-07T01:38:45.054Z,101583.00
2023-10-07T01:42:49.129Z,101584.69
2023-10-07T01:46:57.144Z,101581.44
2023-10-07T01:51:03.101Z,101579.78
2023-10-07T01:55:09.807Z,101573.88
2023-10-07T01:59:19.739Z,101566.72
2023-10-07T02:03:25.008Z,101577.97
2023-10-07T02:07:28.963Z,101570.31
2023-10-07T02:11:32.580Z,101569.81
2023-10-07T02:15:38.681Z,101568.25
2023-10-07T02:19:42.699Z,101559.19
2023-10-07T02:23:45.576Z,101556.78
2023-10-07T02:27:50.096Z,101559.69
2023-10-07T02:31:59.205Z,101553.44
2023-10-07T02:36:01.945Z,101564.75
2023-10-07T02:40:20.458Z,101562.00
2023-10-07T02:44:28.974Z,101565.84
2023-10-07T02:48:37.105Z,101569.97
2023-10-07T02:52:40.754Z,101575.47
2023-10-07T02:56:55.450Z,101571.31
2023-10-07T03:01:11.367Z,101565.66
2023-10-07T03:05:15.896Z,101561.22
2023-10-07T03:09:20.362Z,101561.91
2023-10-07T03:13:24.626Z,101553.91
2023-10-07T03:17:35.788Z,101558.81
2023-10-07T03:21:57.091Z,101558.81
2023-10-07T03:26:07.932Z,101556.66
2023-10-07T03:30:19.729Z,101561.31
2023-10-07T03:34:22.489Z,101561.56
2023-10-07T03:38:27.314Z,101567.56
2023-10-07T03:42:29.988Z,101569.72
2023-10-07T03:46:35.765Z,101583.25
2023-10-07T03:50:38.561Z,101568.63
2023-10-07T03:54:42.796Z,101570.63
2023-10-07T03:58:45.932Z,101567.22
2023-10-07T04:02:51.097Z,101574.94
2023-10-07T04:06:54.122Z,101563.41
2023-10-07T04:10:58.259Z,101558.69
2023-10-07T04:15:03.804Z,101557.34
2023-10-07T04:19:10.664Z,101566.66
2023-10-07T04:23:13.463Z,101565.56
2023-10-07T04:27:21.362Z,101543.72
2023-10-07T04:31:30.860Z,101542.28
2023-10-07T04:35:34.338Z,101546.66
2023-10-07T04:39:40.149Z,101546.69
2023-10-07T04:43:51.402Z,101553.06
2023-10-07T04:47:58.710Z,101550.66
2023-10-07T04:52:05.414Z,101544.66
2023-10-07T04:56:09.215Z,101548.75
2023-10-07T05:00:29.091Z,101550.97
2023-10-07T05:04:33.980Z,101541.72
2023-10-07T05:08:39.054Z,101532.41
2023-10-07T05:12:42.581Z,101552.97
2023-10-07T05:16:50.207Z,101548.81
2023-10-07T05:20:53.274Z,101545.75
2023-10-07T05:25:00.849Z,101546.91
2023-10-07T05:29:04.364Z,101541.22
2023-10-07T05:33:10.901Z,101547.59
2023-10-07T05:37:16.326Z,101544.34
2023-10-07T05:41:19.233Z,101547.34
2023-10-07T05:45:21.960Z,101539.94
2023-10-07T05:49:26.025Z,101546.00
2023-10-07T05:53:30.126Z,101552.56
2023-10-07T05:57:34.467Z,101541.41
2023-10-07T06:01:37.338Z,101542.78
2023-10-07T06:05:41.394Z,101542.03
2023-10-07T06:09:45.209Z,101538.75
2023-10-07T06:13:49.002Z,101542.03
2023-10-07T06:17:51.981Z,101551.16
2023-10-07T06:21:57.854Z,101545.16
2023-10-07T06:26:12.554Z,101537.09
2023-10-07T06:30:21.496Z,101556.66
2023-10-07T06:34:27.807Z,101550.13
2023-10-07T06:38:34.715Z,101560.84
2023-10-07T06:42:41.497Z,101569.38
2023-10-07T06:46:46.400Z,101581.50
2023-10-07T06:50:53.575Z,101568.09
2023-10-07T06:55:08.601Z,101575.25
2023-10-07T06:59:14.785Z,101565.72
2023-10-07T07:03:19.733Z,101566.28
2023-10-07T07:07:22.687Z,101569.66
2023-10-07T07:11:26.804Z,101566.34
2023-10-07T07:15:37.607Z,101584.78
2023-10-07T07:19:40.502Z,101586.75
2023-10-07T07:23:49.887Z,101596.06
2023-10-07T07:27:54.329Z,101591.22
2023-10-07T07:31:57.108Z,101605.03
2023-10-07T07:35:59.910Z,101607.50
2023-10-07T07:40:09.742Z,101609.16
2023-10-07T07:44:14.638Z,101606.53
2023-10-07T07:48:17.959Z,101601.38
2023-10-07T07:52:20.913Z,101590.94
2023-10-07T07:56:23.838Z,101573.41
2023-10-07T08:00:28.537Z,101572.34
2023-10-07T08:04:40.577Z,101563.06
2023-10-07T08:08:43.423Z,101550.75
2023-10-07T08:12:48.105Z,101559.31
2023-10-07T08:16:52.766Z,101574.78
2023-10-07T08:20:58.072Z,101574.59
2023-10-07T08:25:06.585Z,101565.31
2023-10-07T08:29:21.188Z,101574.75
2023-10-07T08:33:25.428Z,101557.69
2023-10-07T08:37:33.684Z,101551.38
2023-10-07T08:41:39.008Z,101565.44
2023-10-07T08:45:42.093Z,101576.47
2023-10-07T08:49:46.277Z,101569.59
2023-10-07T08:53:51.999Z,101575.13
2023-10-07T08:57:55.010Z,101570.75
2023-10-07T09:02:01.828Z,101578.53
2023-10-07T09:06:08.184Z,101568.09
2023-10-07T09:10:16.363Z,101573.63
2023-10-07T09:14:19.863Z,101567.59
2023-10-07T09:18:29.511Z,101574.81
2023-10-07T09:22:36.297Z,101565.44
2023-10-07T09:26:49.434Z,101573.72
2023-10-07T09:30:52.780Z,101562.13
2023-10-07T09:34:57.475Z,101556.31
2023-10-07T09:39:22.378Z,101570.38
2023-10-07T09:43:28.108Z,101564.00
2023-10-07T09:47:34.417Z,101584.13
2023-10-07T09:51:45.402Z,101582.44
2023-10-07T09:56:22.487Z,101587.97
2023-10-07T10:00:40.208Z,101582.16
2023-10-07T10:05:01.400Z,101574.69
2023-10-07T10:09:10.936Z,101590.34
2023-10-07T10:13:30.080Z,101577.38
2023-10-07T10:17:35.024Z,101569.69
2023-10-07T10:21:38.428Z,101562.16
2023-10-07T10:25:41.688Z,101579.22
2023-10-07T10:29:56.553Z,101568.72
2023-10-07T10:34:00.288Z,101595.19
2023-10-07T10:38:10.994Z,101592.66
2023-10-07T10:42:16.117Z,101591.06
2023-10-07T10:46:22.580Z,101591.38
2023-10-07T10:50:26.266Z,101593.84
2023-10-07T10:54:28.947Z,101594.16
2023-10-07T10:58:31.719Z,101598.00
2023-10-07T11:02:41.657Z,101610.72
2023-10-07T11:06:44.480Z,101609.63
2023-10-07T11:10:49.546Z,101606.53
2023-10-07T11:15:03.914Z,101593.31
2023-10-07T11:19:13.334Z,101584.72
2023-10-07T11:23:17.486Z,101595.09
2023-10-07T11:27:20.912Z,101583.91
2023-10-07T11:31:29.569Z,101572.84
2023-10-07T11:35:33.707Z,101580.50
2023-10-07T11:39:40.035Z,101584.81
2023-10-07T11:43:46.149Z,101578.41
2023-10-07T11:47:49.223Z,101580.84
2023-10-07T11:51:53.366Z,101583.75
2023-10-07T11:55:58.876Z,101580.47
2023-10-07T12:00:01.728Z,101568.59
2023-10-07T12:04:06.693Z,101580.34
2023-10-07T12:08:13.392Z,101590.28
2023-10-07T12:12:18.449Z,101574.06
2023-10-07T12:16:22.875Z,101573.50
2023-10-07T12:20:25.640Z,101584.16
2023-10-07T12:24:30.237Z,101591.09
2023-10-07T12:28:32.930Z,101591.19
2023-10-07T12:32:35.733Z,101584.03
2023-10-07T12:36:39.430Z,101590.97
2023-10-07T12:40:43.494Z,101576.38
2023-10-07T12:44:47.038Z,101566.16
2023-10-07T12:48:50.885Z,101562.94
2023-10-07T12:52:56.248Z,101562.00
2023-10-07T12:57:00.383Z,101545.84
2023-10-07T13:01:06.616Z,101547.38
2023-10-07T13:05:10.717Z,101534.59
2023-10-07T13:09:17.687Z,101528.53
2023-10-07T13:13:23.553Z,101515.81
2023-10-07T13:17:26.853Z,101535.38
2023-10-07T13:21:30.785Z,101519.31
2023-10-07T13:25:34.789Z,101519.53
2023-10-07T13:29:38.955Z,101519.81
2023-10-07T13:33:42.044Z,101539.56
2023-10-07T13:37:45.462Z,101534.31
2023-10-07T13:41:49.580Z,101526.84
2023-10-07T13:45:53.809Z,101543.09
2023-10-07T13:49:56.810Z,101546.56
2023-10-07T13:54:14.220Z,101549.75
2023-10-07T13:58:18.193Z,101557.06
2023-10-07T14:02:22.570Z,101548.75
2023-10-07T14:06:28.623Z,101528.13
2023-10-07T14:10:31.317Z,101510.78
2023-10-07T14:14:35.246Z,101519.28
2023-10-07T14:18:39.646Z,101526.75
2023-10-07T14:22:42.711Z,101527.94
2023-10-07T14:26:45.490Z,101513.00
2023-10-07T14:30:48.960Z,101507.97
2023-10-07T14:34:53.184Z,101501.75
2023-10-07T14:38:56.104Z,101508.25
2023-10-07T14:42:59.223Z,101526.13
2023-10-07T14:47:01.999Z,101522.56
2023-10-07T14:51:07.262Z,101521.06
2023-10-07T14:55:11.423Z,101514.19
2023-10-07T14:59:16.328Z,101505.81
2023-10-07T15:03:19.960Z,101501.75
2023-10-07T15:07:24.196Z,101506.81
2023-10-07T15:11:27.014Z,101520.47
2023-10-07T15:15:29.732Z,101519.75
2023-10-07T15:19:32.432Z,101526.78
2023-10-07T15:23:36.528Z,101530.06
2023-10-07T15:27:39.308Z,101521.50
2023-10-07T15:31:42.367Z,101530.91
2023-10-07T15:35:45.178Z,101531.81
2023-10-07T15:39:49.323Z,101549.53
2023-10-07T15:43:52.648Z,101552.88
2023-10-07T15:47:55.992Z,101548.47
2023-10-07T15:51:58.919Z,101545.97
2023-10-07T15:56:07.566Z,101548.47
2023-10-07T16:00:12.842Z,101546.06
2023-10-07T16:04:16.774Z,101554.63
2023-10-07T16:08:19.649Z,101556.38
2023-10-07T16:12:28.055Z,101572.69
2023-10-07T16:16:32.614Z,101574.38
2023-10-07T16:20:40.505Z,101558.06
2023-10-07T16:24:43.757Z,101575.78
2023-10-07T16:28:49.541Z,101568.88
2023-10-07T16:32:52.474Z,101569.16
2023-10-07T16:36:55.270Z,101573.59
2023-10-07T16:40:58.489Z,101579.16
2023-10-07T16:45:04.021Z,101573.94
2023-10-07T16:49:06.779Z,101579.44
2023-10-07T16:53:09.601Z,101595.75
2023-10-07T16:57:12.474Z,101589.94
2023-10-07T17:01:16.544Z,101597.91
2023-10-07T17:05:19.579Z,101586.34
2023-10-07T17:09:23.309Z,101598.19
2023-10-07T17:13:26.577Z,101604.00
2023-10-07T17:17:30.939Z,101599.84
2023-10-07T17:21:33.862Z,101596.84
2023-10-07T17:25:37.474Z,101594.91
2023-10-07T17:29:40.777Z,101591.88
2023-10-07T17:33:44.913Z,101597.66
2023-10-07T17:37:47.771Z,101599.03
2023-10-07T17:41:51.109Z,101583.63
2023-10-07T17:45:54.163Z,101575.09
2023-10-07T17:49:58.231Z,101565.44
2023-10-07T17:54:00.957Z,101579.50
2023-10-07T17:58:04.878Z,101596.84
2023-10-07T18:02:07.768Z,101589.69
2023-10-07T18:06:12.455Z,101580.34
2023-10-07T18:10:16.210Z,101564.63
2023-10-07T18:14:19.005Z,101569.28
2023-10-07T18:18:21.824Z,101562.41
2023-10-07T18:22:26.279Z,101567.38
2023-10-07T18:26:29.084Z,101568.75
2023-10-07T18:30:31.874Z,101563.53
2023-10-07T18:34:34.968Z,101581.69
2023-10-07T18:38:39.089Z,101574.53
2023-10-07T18:42:42.426Z,101576.47
2023-10-07T18:46:47.750Z,101596.28
2023-10-07T18:50:50.572Z,101594.13
2023-10-07T18:54:54.590Z,101584.44
2023-10-07T18:58:57.538Z,101593.00
2023-10-07T19:03:00.829Z,101591.34
2023-10-07T19:07:03.585Z,101578.66
2023-10-07T19:11:10.569Z,101588.31
2023-10-07T19:15:16.703Z,101583.91
2023-10-07T19:19:19.748Z,101578.66
2023-10-07T19:23:25.713Z,101579.75
2023-10-07T19:27:29.926Z,101584.75
2023-10-07T19:31:32.665Z,101597.13
2023-10-07T19:35:35.602Z,101604.03
2023-10-07T19:39:43.928Z,101619.16
2023-10-07T19:43:53.260Z,101629.13
2023-10-07T19:47:58.994Z,101646.47
2023-10-07T19:52:02.023Z,101630.47
2023-10-07T19:56:05.107Z,101612.56
2023-10-07T20:00:11.119Z,101617.50
2023-10-07T20:04:13.936Z,101617.78
2023-10-07T20:08:17.130Z,101626.59
2023-10-07T20:12:20.150Z,101622.75
2023-10-07T20:16:24.684Z,101608.13
2023-10-07T20:20:28.595Z,101621.66
2023-10-07T20:24:31.691Z,101623.31
2023-10-07T20:28:34.611Z,101634.31
2023-10-07T20:32:39.040Z,101637.09
2023-10-07T20:36:41.794Z,101662.72
2023-10-07T20:40:53.689Z,101649.47
2023-10-07T20:44:56.629Z,101654.44
2023-10-07T20:49:00.712Z,101648.66
2023-10-07T20:53:04.186Z,101647.81
2023-10-07T20:57:08.942Z,101636.25
2023-10-07T21:01:18.518Z,101635.44
2023-10-07T21:05:28.085Z,101628.81
2023-10-07T21:09:31.104Z,101625.25
2023-10-07T21:13:33.989Z,101633.22
2023-10-07T21:17:36.891Z,101643.69
2023-10-07T21:21:41.109Z,101656.09
2023-10-07T21:25:45.566Z,101639.00
2023-10-07T21:29:48.390Z,101645.63
2023-10-07T21:33:51.140Z,101650.03
2023-10-07T21:37:55.349Z,101626.63
2023-10-07T21:41:58.051Z,101652.25
2023-10-07T21:46:00.830Z,101670.44
2023-10-07T21:50:04.636Z,101658.84
2023-10-07T21:54:10.420Z,101655.53
2023-10-07T21:58:13.792Z,101643.97
2023-10-07T22:02:17.320Z,101686.69
2023-10-07T22:06:21.566Z,101677.84
2023-10-07T22:10:34.340Z,101670.41
2023-10-07T22:14:37.499Z,101641.75
2023-10-07T22:18:41.032Z,101654.97
2023-10-07T22:22:44.266Z,101650.00
2023-10-07T22:26:48.807Z,101664.63
2023-10-07T22:30:53.122Z,101671.78
2023-10-07T22:35:01.884Z,101680.59
2023-10-07T22:39:20.851Z,101691.88
2023-10-07T22:43:34.317Z,101685.81
2023-10-07T22:47:37.095Z,101677.81
2023-10-07T22:51:44.096Z,101698.50
2023-10-07T22:55:51.637Z,101716.13
2023-10-07T22:59:56.344Z,101697.38
2023-10-07T23:04:10.822Z,101710.25
2023-10-07T23:08:16.447Z,101704.22
2023-10-07T23:12:29.092Z,101702.81
2023-10-07T23:16:37.082Z,101716.03
2023-10-07T23:20:42.662Z,101701.16
2023-10-07T23:24:53.215Z,101709.72
2023-10-07T23:29:03.121Z,101705.84
2023-10-07T23:33:14.251Z,101714.66
2023-10-07T23:37:18.514Z,101706.38
2023-10-07T23:41:26.325Z,101704.44
2023-10-07T23:45:29.485Z,101720.44
2023-10-07T23:49:36.583Z,101729.28
2023-10-07T23:53:39.623Z,101724.63
2023-10-07T23:57:42.459Z,101735.88
